Crumrod, Arkansas
Current Conditions -  °F | °C
As of 4:55 PM on Saturday 25 Oct 2014 (Local Time) from KCKM Reporting Station
Clear Clear  
Wind Chill: 82°   Ceiling: Unl
Heat Index: 84°   Visibility: 10mi
Dew Point: 64°   Wind: 8mph
Humidity: 54%   Direction: 250°WSW
Pressure: 30.03"   Gusts: NA
Location:  34.15°N, 90.98°W
Report Text: KCKM 252155Z AUTO 25007KT 10SM CLR 28/18 A3003 RMK AO1
Loading
Personal Weather Stations






























Interactive Weather Map
Tropical Storm Tracking
New forecast layout! Learn more

10-Day Weather Forecast

Advertisements
Track Severe Weather on mobile